Kirishima Maru No.5 — JD2506 — position and weather

sailwx.info

Track history (hours):
 
Tides and Currents Weather Stations Pressure Air Temp Water Temp Dewpoint Dewpoint Depression Visibility Wind Speed Wind Dir Waves Ship Positions

Kirishima Maru No.5

Last reported at 2016-Jun-26 04:33 UTC. Time now 2016-Jun-27 00:35 UTC.
Position N 34°37' E 135°01'.

Length 105 m; draft 6.5 m.

Type: Tanker. MMSI: 431000338.

Date/timePositionNaut miles runAvg speedWind from/ knotsBaromVisibWave heightAir tempDewpointWater temp
2016-Jun-26 04:33N 34°37' E 135°01'1212.5
2016-Jun-26 03:33N 34°25' E 135°02'1413.8
2016-Jun-26 02:33N 34°11' E 134°60'26110.4
2016-Jun-25 01:32N 34°60' E 140°11'  
2016-Jun-22 13:16N 35°00' E 140°17'1115.3
2016-Jun-22 12:34N 34°55' E 140°05'1714.6
2016-Jun-22 11:24N 34°47' E 139°47'24212.7
2016-Jun-21 16:17N 34°01' E 134°59'1114.6
2016-Jun-21 15:32N 34°12' E 134°58'1313.7
2016-Jun-21 14:33N 34°25' E 135°01'1212.1
2016-Jun-21 13:32N 34°37' E 135°00'  
Track history (hours):
 
Tides and Currents Weather Stations Pressure Air Temp Water Temp Dewpoint Dewpoint Depression Visibility Wind Speed Wind Dir Waves Ship Positions

Kirishima Maru No.5

Last reported at 2016-Jun-26 04:33 UTC. Time now 2016-Jun-27 00:35 UTC.
Position N 34°37' E 135°01'.

Length 105 m; draft 6.5 m.

Type: Tanker. MMSI: 431000338.

Date/timePositionNaut miles runAvg speedWind from/ knotsBaromVisibWave heightAir tempDewpointWater temp
2016-Jun-26 04:33N 34°37' E 135°01'1212.5
2016-Jun-26 03:33N 34°25' E 135°02'1413.8
2016-Jun-26 02:33N 34°11' E 134°60'26110.4
2016-Jun-25 01:32N 34°60' E 140°11'  
2016-Jun-22 13:16N 35°00' E 140°17'1115.3
2016-Jun-22 12:34N 34°55' E 140°05'1714.6
2016-Jun-22 11:24N 34°47' E 139°47'24212.7
2016-Jun-21 16:17N 34°01' E 134°59'1114.6
2016-Jun-21 15:32N 34°12' E 134°58'1313.7
2016-Jun-21 14:33N 34°25' E 135°01'1212.1
2016-Jun-21 13:32N 34°37' E 135°00'  

Dump ship's entire track history